sensor_id;sensor_type;location;lat;lon;timestamp;P1;durP1;ratioP1;P2;durP2;ratioP2
20609;SDS011;10463;52.378;9.688;2023-09-19T00:01:20;1.60;;;1.10;;
20609;SDS011;10463;52.378;9.688;2023-09-19T00:04:04;1.93;;;1.17;;
20609;SDS011;10463;52.378;9.688;2023-09-19T00:06:53;1.50;;;1.00;;
20609;SDS011;10463;52.378;9.688;2023-09-19T00:09:38;1.63;;;0.90;;
20609;SDS011;10463;52.378;9.688;2023-09-19T00:12:22;1.90;;;1.00;;
20609;SDS011;10463;52.378;9.688;2023-09-19T00:15:08;2.10;;;1.30;;
20609;SDS011;10463;52.378;9.688;2023-09-19T00:17:55;1.60;;;1.00;;
20609;SDS011;10463;52.378;9.688;2023-09-19T00:20:40;1.60;;;1.00;;
20609;SDS011;10463;52.378;9.688;2023-09-19T00:23:26;1.90;;;1.40;;
20609;SDS011;10463;52.378;9.688;2023-09-19T00:26:11;2.00;;;1.20;;
20609;SDS011;10463;52.378;9.688;2023-09-19T00:28:58;1.97;;;1.10;;
20609;SDS011;10463;52.378;9.688;2023-09-19T00:31:52;1.60;;;1.00;;
20609;SDS011;10463;52.378;9.688;2023-09-19T00:34:39;1.63;;;1.10;;
20609;SDS011;10463;52.378;9.688;2023-09-19T00:37:24;1.80;;;1.30;;
20609;SDS011;10463;52.378;9.688;2023-09-19T00:40:10;2.20;;;1.60;;
20609;SDS011;10463;52.378;9.688;2023-09-19T00:42:59;1.70;;;1.00;;
20609;SDS011;10463;52.378;9.688;2023-09-19T00:45:45;1.93;;;1.40;;
20609;SDS011;10463;52.378;9.688;2023-09-19T00:48:32;1.90;;;1.07;;
20609;SDS011;10463;52.378;9.688;2023-09-19T00:51:25;2.40;;;1.47;;
20609;SDS011;10463;52.378;9.688;2023-09-19T00:54:11;2.03;;;1.10;;
20609;SDS011;10463;52.378;9.688;2023-09-19T00:57:02;1.83;;;1.23;;
20609;SDS011;10463;52.378;9.688;2023-09-19T00:59:46;2.10;;;1.20;;
20609;SDS011;10463;52.378;9.688;2023-09-19T01:02:35;4.63;;;1.40;;
20609;SDS011;10463;52.378;9.688;2023-09-19T01:05:19;1.70;;;1.07;;
20609;SDS011;10463;52.378;9.688;2023-09-19T01:08:05;1.57;;;1.03;;
20609;SDS011;10463;52.378;9.688;2023-09-19T01:10:54;2.80;;;1.50;;
20609;SDS011;10463;52.378;9.688;2023-09-19T01:13:48;2.20;;;1.23;;
20609;SDS011;10463;52.378;9.688;2023-09-19T01:16:56;3.30;;;1.40;;
20609;SDS011;10463;52.378;9.688;2023-09-19T01:20:11;1.90;;;1.33;;
20609;SDS011;10463;52.378;9.688;2023-09-19T01:23:10;2.90;;;1.90;;
20609;SDS011;10463;52.378;9.688;2023-09-19T01:26:10;1.90;;;1.30;;
20609;SDS011;10463;52.378;9.688;2023-09-19T01:29:23;1.63;;;1.20;;
20609;SDS011;10463;52.378;9.688;2023-09-19T01:32:21;2.40;;;1.80;;
20609;SDS011;10463;52.378;9.688;2023-09-19T01:35:09;2.23;;;1.20;;
20609;SDS011;10463;52.378;9.688;2023-09-19T01:37:56;2.00;;;1.50;;
20609;SDS011;10463;52.378;9.688;2023-09-19T01:40:42;4.03;;;2.37;;
20609;SDS011;10463;52.378;9.688;2023-09-19T01:43:32;3.13;;;1.37;;
20609;SDS011;10463;52.378;9.688;2023-09-19T01:46:23;3.80;;;1.27;;
20609;SDS011;10463;52.378;9.688;2023-09-19T01:49:22;2.13;;;1.50;;
20609;SDS011;10463;52.378;9.688;2023-09-19T01:52:17;2.27;;;1.30;;
20609;SDS011;10463;52.378;9.688;2023-09-19T01:55:07;2.60;;;1.63;;
20609;SDS011;10463;52.378;9.688;2023-09-19T01:57:58;2.83;;;1.77;;
20609;SDS011;10463;52.378;9.688;2023-09-19T02:00:48;1.77;;;1.47;;
20609;SDS011;10463;52.378;9.688;2023-09-19T02:03:38;2.60;;;1.73;;
20609;SDS011;10463;52.378;9.688;2023-09-19T02:06:25;2.53;;;1.67;;
20609;SDS011;10463;52.378;9.688;2023-09-19T02:09:10;2.00;;;1.47;;
20609;SDS011;10463;52.378;9.688;2023-09-19T02:11:55;2.10;;;1.90;;
20609;SDS011;10463;52.378;9.688;2023-09-19T02:14:40;2.80;;;1.50;;
20609;SDS011;10463;52.378;9.688;2023-09-19T02:17:25;2.17;;;1.43;;
20609;SDS011;10463;52.378;9.688;2023-09-19T02:20:10;1.80;;;1.47;;
20609;SDS011;10463;52.378;9.688;2023-09-19T02:23:00;2.27;;;1.70;;
20609;SDS011;10463;52.378;9.688;2023-09-19T02:25:52;2.10;;;1.60;;
20609;SDS011;10463;52.378;9.688;2023-09-19T02:28:37;2.83;;;1.70;;
20609;SDS011;10463;52.378;9.688;2023-09-19T02:31:21;2.20;;;1.60;;
20609;SDS011;10463;52.378;9.688;2023-09-19T02:34:18;4.37;;;2.20;;
20609;SDS011;10463;52.378;9.688;2023-09-19T02:37:04;2.03;;;1.57;;
20609;SDS011;10463;52.378;9.688;2023-09-19T02:39:51;2.03;;;1.60;;
20609;SDS011;10463;52.378;9.688;2023-09-19T02:42:36;2.30;;;1.70;;
20609;SDS011;10463;52.378;9.688;2023-09-19T02:45:22;2.13;;;1.70;;
20609;SDS011;10463;52.378;9.688;2023-09-19T02:48:08;2.00;;;1.47;;
20609;SDS011;10463;52.378;9.688;2023-09-19T02:50:53;2.40;;;1.80;;
20609;SDS011;10463;52.378;9.688;2023-09-19T02:53:38;3.97;;;1.87;;
20609;SDS011;10463;52.378;9.688;2023-09-19T02:56:25;2.80;;;2.27;;
20609;SDS011;10463;52.378;9.688;2023-09-19T02:59:10;3.97;;;2.10;;
20609;SDS011;10463;52.378;9.688;2023-09-19T03:01:56;2.47;;;2.00;;
20609;SDS011;10463;52.378;9.688;2023-09-19T03:04:40;3.07;;;2.17;;
20609;SDS011;10463;52.378;9.688;2023-09-19T03:07:25;4.07;;;1.87;;
20609;SDS011;10463;52.378;9.688;2023-09-19T03:10:10;1.80;;;1.50;;
20609;SDS011;10463;52.378;9.688;2023-09-19T03:12:56;2.73;;;1.90;;
20609;SDS011;10463;52.378;9.688;2023-09-19T03:15:44;3.30;;;1.90;;
20609;SDS011;10463;52.378;9.688;2023-09-19T03:18:31;2.57;;;1.90;;
20609;SDS011;10463;52.378;9.688;2023-09-19T03:21:16;2.37;;;1.90;;
20609;SDS011;10463;52.378;9.688;2023-09-19T03:24:02;2.50;;;1.97;;
20609;SDS011;10463;52.378;9.688;2023-09-19T03:26:48;2.00;;;1.57;;
20609;SDS011;10463;52.378;9.688;2023-09-19T03:29:36;2.37;;;1.80;;
20609;SDS011;10463;52.378;9.688;2023-09-19T03:32:22;3.73;;;2.10;;
20609;SDS011;10463;52.378;9.688;2023-09-19T03:35:07;2.60;;;1.90;;
20609;SDS011;10463;52.378;9.688;2023-09-19T03:37:55;2.53;;;1.77;;
20609;SDS011;10463;52.378;9.688;2023-09-19T03:40:43;2.80;;;2.03;;
20609;SDS011;10463;52.378;9.688;2023-09-19T03:43:28;2.60;;;1.67;;
20609;SDS011;10463;52.378;9.688;2023-09-19T03:46:14;1.90;;;1.60;;
20609;SDS011;10463;52.378;9.688;2023-09-19T03:49:00;2.47;;;1.70;;
20609;SDS011;10463;52.378;9.688;2023-09-19T03:51:44;3.07;;;1.93;;
20609;SDS011;10463;52.378;9.688;2023-09-19T03:54:29;2.43;;;1.73;;
20609;SDS011;10463;52.378;9.688;2023-09-19T03:57:14;3.47;;;2.10;;
20609;SDS011;10463;52.378;9.688;2023-09-19T04:00:05;4.10;;;1.77;;
20609;SDS011;10463;52.378;9.688;2023-09-19T04:02:59;2.47;;;1.87;;
20609;SDS011;10463;52.378;9.688;2023-09-19T04:05:49;3.30;;;2.47;;
20609;SDS011;10463;52.378;9.688;2023-09-19T04:08:34;2.90;;;2.37;;
20609;SDS011;10463;52.378;9.688;2023-09-19T04:11:19;2.97;;;2.10;;
20609;SDS011;10463;52.378;9.688;2023-09-19T04:14:04;3.90;;;2.10;;
20609;SDS011;10463;52.378;9.688;2023-09-19T04:16:49;4.03;;;2.40;;
20609;SDS011;10463;52.378;9.688;2023-09-19T04:19:35;3.03;;;2.27;;
20609;SDS011;10463;52.378;9.688;2023-09-19T04:22:20;3.87;;;2.17;;
20609;SDS011;10463;52.378;9.688;2023-09-19T04:25:05;3.40;;;2.30;;
20609;SDS011;10463;52.378;9.688;2023-09-19T04:27:50;2.67;;;2.03;;
20609;SDS011;10463;52.378;9.688;2023-09-19T04:30:35;2.97;;;2.13;;
20609;SDS011;10463;52.378;9.688;2023-09-19T04:33:20;2.67;;;2.20;;
20609;SDS011;10463;52.378;9.688;2023-09-19T04:36:07;4.10;;;2.77;;
20609;SDS011;10463;52.378;9.688;2023-09-19T04:38:52;5.27;;;2.57;;
20609;SDS011;10463;52.378;9.688;2023-09-19T04:41:37;3.63;;;2.53;;
20609;SDS011;10463;52.378;9.688;2023-09-19T04:44:25;3.20;;;2.10;;
20609;SDS011;10463;52.378;9.688;2023-09-19T04:47:09;3.40;;;2.43;;
20609;SDS011;10463;52.378;9.688;2023-09-19T04:49:56;5.20;;;2.33;;
20609;SDS011;10463;52.378;9.688;2023-09-19T04:52:44;3.77;;;2.57;;
20609;SDS011;10463;52.378;9.688;2023-09-19T04:55:29;4.17;;;3.10;;
20609;SDS011;10463;52.378;9.688;2023-09-19T04:58:14;3.73;;;2.60;;
20609;SDS011;10463;52.378;9.688;2023-09-19T05:00:58;4.03;;;3.20;;
20609;SDS011;10463;52.378;9.688;2023-09-19T05:03:43;3.80;;;2.80;;
20609;SDS011;10463;52.378;9.688;2023-09-19T05:06:29;3.90;;;2.80;;
20609;SDS011;10463;52.378;9.688;2023-09-19T05:09:15;3.97;;;2.67;;
20609;SDS011;10463;52.378;9.688;2023-09-19T05:12:04;4.17;;;2.80;;
20609;SDS011;10463;52.378;9.688;2023-09-19T05:14:49;3.17;;;2.60;;
20609;SDS011;10463;52.378;9.688;2023-09-19T05:17:34;3.00;;;2.40;;
20609;SDS011;10463;52.378;9.688;2023-09-19T05:20:20;3.13;;;2.47;;
20609;SDS011;10463;52.378;9.688;2023-09-19T05:23:14;3.87;;;3.33;;
20609;SDS011;10463;52.378;9.688;2023-09-19T05:26:00;3.70;;;2.67;;
20609;SDS011;10463;52.378;9.688;2023-09-19T05:28:45;4.03;;;3.27;;
20609;SDS011;10463;52.378;9.688;2023-09-19T05:31:32;7.03;;;3.33;;
20609;SDS011;10463;52.378;9.688;2023-09-19T05:34:16;4.30;;;3.40;;
20609;SDS011;10463;52.378;9.688;2023-09-19T05:37:01;3.17;;;2.87;;
20609;SDS011;10463;52.378;9.688;2023-09-19T05:39:45;3.93;;;2.93;;
20609;SDS011;10463;52.378;9.688;2023-09-19T05:42:32;4.50;;;3.47;;
20609;SDS011;10463;52.378;9.688;2023-09-19T05:45:17;5.87;;;3.73;;
20609;SDS011;10463;52.378;9.688;2023-09-19T05:48:09;4.10;;;2.90;;
20609;SDS011;10463;52.378;9.688;2023-09-19T05:50:56;4.10;;;3.33;;
20609;SDS011;10463;52.378;9.688;2023-09-19T05:53:41;5.50;;;3.30;;
20609;SDS011;10463;52.378;9.688;2023-09-19T05:56:27;3.97;;;3.10;;
20609;SDS011;10463;52.378;9.688;2023-09-19T05:59:13;4.50;;;3.00;;
20609;SDS011;10463;52.378;9.688;2023-09-19T06:01:59;4.03;;;3.17;;
20609;SDS011;10463;52.378;9.688;2023-09-19T06:04:44;6.00;;;3.10;;
20609;SDS011;10463;52.378;9.688;2023-09-19T06:07:29;3.50;;;3.00;;
20609;SDS011;10463;52.378;9.688;2023-09-19T06:10:22;4.90;;;3.50;;
20609;SDS011;10463;52.378;9.688;2023-09-19T06:13:07;3.30;;;2.97;;
20609;SDS011;10463;52.378;9.688;2023-09-19T06:15:55;3.30;;;3.00;;
20609;SDS011;10463;52.378;9.688;2023-09-19T06:18:40;6.07;;;3.53;;
20609;SDS011;10463;52.378;9.688;2023-09-19T06:21:25;5.03;;;3.40;;
20609;SDS011;10463;52.378;9.688;2023-09-19T06:24:10;4.30;;;3.27;;
20609;SDS011;10463;52.378;9.688;2023-09-19T06:26:55;5.10;;;3.20;;
20609;SDS011;10463;52.378;9.688;2023-09-19T06:29:40;3.73;;;3.17;;
20609;SDS011;10463;52.378;9.688;2023-09-19T06:32:28;5.43;;;3.63;;
20609;SDS011;10463;52.378;9.688;2023-09-19T06:35:13;3.60;;;3.10;;
20609;SDS011;10463;52.378;9.688;2023-09-19T06:37:59;3.57;;;3.10;;
20609;SDS011;10463;52.378;9.688;2023-09-19T06:40:46;3.40;;;3.00;;
20609;SDS011;10463;52.378;9.688;2023-09-19T06:43:31;4.50;;;3.17;;
20609;SDS011;10463;52.378;9.688;2023-09-19T06:46:18;5.50;;;3.03;;
20609;SDS011;10463;52.378;9.688;2023-09-19T06:49:04;5.00;;;2.90;;
20609;SDS011;10463;52.378;9.688;2023-09-19T06:51:49;3.40;;;2.83;;
20609;SDS011;10463;52.378;9.688;2023-09-19T06:54:34;5.57;;;3.80;;
20609;SDS011;10463;52.378;9.688;2023-09-19T06:57:20;3.00;;;2.50;;
20609;SDS011;10463;52.378;9.688;2023-09-19T07:00:05;3.40;;;2.73;;
20609;SDS011;10463;52.378;9.688;2023-09-19T07:03:00;4.20;;;3.00;;
20609;SDS011;10463;52.378;9.688;2023-09-19T07:05:49;4.00;;;2.77;;
20609;SDS011;10463;52.378;9.688;2023-09-19T07:08:33;6.17;;;3.07;;
20609;SDS011;10463;52.378;9.688;2023-09-19T07:11:18;3.57;;;3.03;;
20609;SDS011;10463;52.378;9.688;2023-09-19T07:14:04;3.70;;;2.50;;
20609;SDS011;10463;52.378;9.688;2023-09-19T07:16:49;4.70;;;2.77;;
20609;SDS011;10463;52.378;9.688;2023-09-19T07:19:34;4.33;;;2.90;;
20609;SDS011;10463;52.378;9.688;2023-09-19T07:22:20;3.40;;;2.50;;
20609;SDS011;10463;52.378;9.688;2023-09-19T07:25:05;5.47;;;3.17;;
20609;SDS011;10463;52.378;9.688;2023-09-19T07:27:50;3.87;;;2.13;;
20609;SDS011;10463;52.378;9.688;2023-09-19T07:30:36;3.63;;;2.43;;
20609;SDS011;10463;52.378;9.688;2023-09-19T07:33:25;2.73;;;2.10;;
20609;SDS011;10463;52.378;9.688;2023-09-19T07:36:12;4.00;;;2.60;;
20609;SDS011;10463;52.378;9.688;2023-09-19T07:38:58;4.30;;;2.13;;
20609;SDS011;10463;52.378;9.688;2023-09-19T07:41:44;2.77;;;2.13;;
20609;SDS011;10463;52.378;9.688;2023-09-19T07:44:28;3.03;;;2.00;;
20609;SDS011;10463;52.378;9.688;2023-09-19T07:47:13;4.73;;;2.20;;
20609;SDS011;10463;52.378;9.688;2023-09-19T07:49:58;3.40;;;1.90;;
20609;SDS011;10463;52.378;9.688;2023-09-19T07:52:43;3.40;;;2.10;;
20609;SDS011;10463;52.378;9.688;2023-09-19T07:55:30;3.67;;;1.90;;
20609;SDS011;10463;52.378;9.688;2023-09-19T07:58:17;4.50;;;2.10;;
20609;SDS011;10463;52.378;9.688;2023-09-19T08:01:03;2.77;;;1.67;;
20609;SDS011;10463;52.378;9.688;2023-09-19T08:03:48;3.77;;;2.20;;
20609;SDS011;10463;52.378;9.688;2023-09-19T08:06:33;3.03;;;1.57;;
20609;SDS011;10463;52.378;9.688;2023-09-19T08:09:17;2.70;;;1.80;;
20609;SDS011;10463;52.378;9.688;2023-09-19T08:12:06;3.00;;;1.53;;
20609;SDS011;10463;52.378;9.688;2023-09-19T08:14:54;2.90;;;1.40;;
20609;SDS011;10463;52.378;9.688;2023-09-19T08:17:39;2.80;;;1.50;;
20609;SDS011;10463;52.378;9.688;2023-09-19T08:20:24;3.10;;;1.90;;
20609;SDS011;10463;52.378;9.688;2023-09-19T08:23:09;2.80;;;1.50;;
20609;SDS011;10463;52.378;9.688;2023-09-19T08:25:56;3.30;;;1.53;;
20609;SDS011;10463;52.378;9.688;2023-09-19T08:28:43;2.77;;;1.63;;
20609;SDS011;10463;52.378;9.688;2023-09-19T08:31:27;3.00;;;1.60;;
20609;SDS011;10463;52.378;9.688;2023-09-19T08:34:13;2.50;;;1.40;;
20609;SDS011;10463;52.378;9.688;2023-09-19T08:36:58;5.03;;;2.43;;
20609;SDS011;10463;52.378;9.688;2023-09-19T08:39:42;2.83;;;1.70;;
20609;SDS011;10463;52.378;9.688;2023-09-19T08:42:27;4.40;;;1.80;;
20609;SDS011;10463;52.378;9.688;2023-09-19T08:45:13;3.80;;;1.97;;
20609;SDS011;10463;52.378;9.688;2023-09-19T08:48:03;2.70;;;1.87;;
20609;SDS011;10463;52.378;9.688;2023-09-19T08:51:03;2.90;;;1.67;;
20609;SDS011;10463;52.378;9.688;2023-09-19T08:53:52;2.70;;;1.57;;
20609;SDS011;10463;52.378;9.688;2023-09-19T08:56:43;2.37;;;1.53;;
20609;SDS011;10463;52.378;9.688;2023-09-19T08:59:28;3.43;;;1.60;;
20609;SDS011;10463;52.378;9.688;2023-09-19T09:02:15;4.27;;;1.60;;
20609;SDS011;10463;52.378;9.688;2023-09-19T09:05:03;2.60;;;1.67;;
20609;SDS011;10463;52.378;9.688;2023-09-19T09:07:50;4.87;;;1.60;;
20609;SDS011;10463;52.378;9.688;2023-09-19T09:10:35;5.73;;;2.10;;
20609;SDS011;10463;52.378;9.688;2023-09-19T09:13:21;2.67;;;1.60;;
20609;SDS011;10463;52.378;9.688;2023-09-19T09:16:09;2.43;;;1.30;;
20609;SDS011;10463;52.378;9.688;2023-09-19T09:18:55;2.80;;;1.60;;
20609;SDS011;10463;52.378;9.688;2023-09-19T09:21:40;3.30;;;1.70;;
20609;SDS011;10463;52.378;9.688;2023-09-19T09:24:29;2.30;;;1.60;;
20609;SDS011;10463;52.378;9.688;2023-09-19T09:27:14;8.43;;;2.33;;
20609;SDS011;10463;52.378;9.688;2023-09-19T09:29:59;3.27;;;1.87;;
20609;SDS011;10463;52.378;9.688;2023-09-19T09:32:43;4.60;;;1.63;;
20609;SDS011;10463;52.378;9.688;2023-09-19T09:35:30;2.43;;;1.60;;
20609;SDS011;10463;52.378;9.688;2023-09-19T09:38:14;4.33;;;1.43;;
20609;SDS011;10463;52.378;9.688;2023-09-19T09:41:02;3.80;;;2.00;;
20609;SDS011;10463;52.378;9.688;2023-09-19T09:43:50;2.00;;;1.30;;
20609;SDS011;10463;52.378;9.688;2023-09-19T09:46:35;2.80;;;1.60;;
20609;SDS011;10463;52.378;9.688;2023-09-19T09:49:38;3.87;;;2.10;;
20609;SDS011;10463;52.378;9.688;2023-09-19T09:52:24;3.60;;;1.80;;
20609;SDS011;10463;52.378;9.688;2023-09-19T09:55:10;3.37;;;1.97;;
20609;SDS011;10463;52.378;9.688;2023-09-19T09:58:16;2.33;;;1.40;;
20609;SDS011;10463;52.378;9.688;2023-09-19T10:01:06;3.60;;;1.77;;
20609;SDS011;10463;52.378;9.688;2023-09-19T10:03:57;1.93;;;1.20;;
20609;SDS011;10463;52.378;9.688;2023-09-19T10:06:44;4.07;;;1.50;;
20609;SDS011;10463;52.378;9.688;2023-09-19T10:09:45;3.20;;;1.30;;
20609;SDS011;10463;52.378;9.688;2023-09-19T10:12:36;3.00;;;1.47;;
20609;SDS011;10463;52.378;9.688;2023-09-19T10:15:26;2.70;;;1.60;;
20609;SDS011;10463;52.378;9.688;2023-09-19T10:18:16;2.97;;;1.67;;
20609;SDS011;10463;52.378;9.688;2023-09-19T10:21:04;2.80;;;1.53;;
20609;SDS011;10463;52.378;9.688;2023-09-19T10:23:52;4.50;;;2.10;;
20609;SDS011;10463;52.378;9.688;2023-09-19T10:26:41;2.33;;;1.20;;
20609;SDS011;10463;52.378;9.688;2023-09-19T10:29:27;2.87;;;1.43;;
20609;SDS011;10463;52.378;9.688;2023-09-19T10:32:15;3.27;;;1.50;;
20609;SDS011;10463;52.378;9.688;2023-09-19T10:35:03;4.43;;;1.80;;
20609;SDS011;10463;52.378;9.688;2023-09-19T10:37:51;3.67;;;1.60;;
20609;SDS011;10463;52.378;9.688;2023-09-19T10:40:39;3.30;;;1.50;;
20609;SDS011;10463;52.378;9.688;2023-09-19T10:43:32;5.50;;;2.00;;
20609;SDS011;10463;52.378;9.688;2023-09-19T10:46:17;3.33;;;1.70;;
20609;SDS011;10463;52.378;9.688;2023-09-19T10:49:02;2.70;;;1.77;;
20609;SDS011;10463;52.378;9.688;2023-09-19T10:51:47;3.07;;;1.60;;
20609;SDS011;10463;52.378;9.688;2023-09-19T10:54:34;4.83;;;2.10;;
20609;SDS011;10463;52.378;9.688;2023-09-19T10:57:23;5.80;;;1.73;;
20609;SDS011;10463;52.378;9.688;2023-09-19T11:00:13;3.23;;;1.70;;
20609;SDS011;10463;52.378;9.688;2023-09-19T11:03:17;4.40;;;2.07;;
20609;SDS011;10463;52.378;9.688;2023-09-19T11:06:06;5.00;;;2.23;;
20609;SDS011;10463;52.378;9.688;2023-09-19T11:09:01;4.30;;;2.20;;
20609;SDS011;10463;52.378;9.688;2023-09-19T11:11:59;4.33;;;1.93;;
20609;SDS011;10463;52.378;9.688;2023-09-19T11:14:45;3.00;;;1.90;;
20609;SDS011;10463;52.378;9.688;2023-09-19T11:17:34;2.70;;;1.57;;
20609;SDS011;10463;52.378;9.688;2023-09-19T11:20:23;3.43;;;1.47;;
20609;SDS011;10463;52.378;9.688;2023-09-19T11:23:23;3.50;;;1.77;;
20609;SDS011;10463;52.378;9.688;2023-09-19T11:26:32;2.63;;;1.73;;
20609;SDS011;10463;52.378;9.688;2023-09-19T11:29:28;2.80;;;1.60;;
20609;SDS011;10463;52.378;9.688;2023-09-19T11:32:14;4.53;;;2.17;;
20609;SDS011;10463;52.378;9.688;2023-09-19T11:35:08;3.97;;;1.60;;
20609;SDS011;10463;52.378;9.688;2023-09-19T11:38:03;3.40;;;1.53;;
20609;SDS011;10463;52.378;9.688;2023-09-19T11:41:06;3.13;;;1.57;;
20609;SDS011;10463;52.378;9.688;2023-09-19T11:44:34;3.23;;;1.77;;
20609;SDS011;10463;52.378;9.688;2023-09-19T11:47:20;3.77;;;1.90;;
20609;SDS011;10463;52.378;9.688;2023-09-19T11:50:07;4.23;;;2.03;;
20609;SDS011;10463;52.378;9.688;2023-09-19T11:52:55;2.73;;;1.90;;
20609;SDS011;10463;52.378;9.688;2023-09-19T11:55:40;2.20;;;1.30;;
20609;SDS011;10463;52.378;9.688;2023-09-19T11:58:27;5.00;;;2.30;;
20609;SDS011;10463;52.378;9.688;2023-09-19T12:01:14;4.43;;;1.90;;
20609;SDS011;10463;52.378;9.688;2023-09-19T12:04:05;4.13;;;1.93;;
20609;SDS011;10463;52.378;9.688;2023-09-19T12:06:57;3.40;;;1.50;;
20609;SDS011;10463;52.378;9.688;2023-09-19T12:09:42;3.43;;;1.60;;
20609;SDS011;10463;52.378;9.688;2023-09-19T12:12:30;5.03;;;1.80;;
20609;SDS011;10463;52.378;9.688;2023-09-19T12:15:22;4.30;;;1.80;;
20609;SDS011;10463;52.378;9.688;2023-09-19T12:18:25;3.40;;;1.87;;
20609;SDS011;10463;52.378;9.688;2023-09-19T12:21:28;3.37;;;1.83;;
20609;SDS011;10463;52.378;9.688;2023-09-19T12:24:17;4.13;;;1.90;;
20609;SDS011;10463;52.378;9.688;2023-09-19T12:27:04;4.60;;;2.20;;
20609;SDS011;10463;52.378;9.688;2023-09-19T12:29:50;3.80;;;1.70;;
20609;SDS011;10463;52.378;9.688;2023-09-19T12:32:39;3.10;;;1.90;;
20609;SDS011;10463;52.378;9.688;2023-09-19T12:35:28;4.50;;;1.80;;
20609;SDS011;10463;52.378;9.688;2023-09-19T12:38:23;3.87;;;1.90;;
20609;SDS011;10463;52.378;9.688;2023-09-19T12:41:09;3.87;;;1.93;;
20609;SDS011;10463;52.378;9.688;2023-09-19T12:43:54;2.70;;;1.70;;
20609;SDS011;10463;52.378;9.688;2023-09-19T12:46:39;2.70;;;1.47;;
20609;SDS011;10463;52.378;9.688;2023-09-19T12:49:25;2.37;;;1.47;;
20609;SDS011;10463;52.378;9.688;2023-09-19T12:52:11;5.57;;;1.87;;
20609;SDS011;10463;52.378;9.688;2023-09-19T12:54:56;5.80;;;1.80;;
20609;SDS011;10463;52.378;9.688;2023-09-19T12:57:42;3.50;;;1.90;;
20609;SDS011;10463;52.378;9.688;2023-09-19T13:00:35;3.40;;;1.73;;
20609;SDS011;10463;52.378;9.688;2023-09-19T13:03:25;5.43;;;1.97;;
20609;SDS011;10463;52.378;9.688;2023-09-19T13:06:12;3.20;;;1.60;;
20609;SDS011;10463;52.378;9.688;2023-09-19T13:09:07;3.37;;;1.80;;
20609;SDS011;10463;52.378;9.688;2023-09-19T13:11:56;3.43;;;2.00;;
20609;SDS011;10463;52.378;9.688;2023-09-19T13:14:44;2.50;;;1.90;;
20609;SDS011;10463;52.378;9.688;2023-09-19T13:17:42;3.60;;;2.00;;
20609;SDS011;10463;52.378;9.688;2023-09-19T13:20:27;3.30;;;1.63;;
20609;SDS011;10463;52.378;9.688;2023-09-19T13:23:26;2.53;;;1.77;;
20609;SDS011;10463;52.378;9.688;2023-09-19T13:26:10;4.30;;;1.70;;
20609;SDS011;10463;52.378;9.688;2023-09-19T13:28:55;2.97;;;1.80;;
20609;SDS011;10463;52.378;9.688;2023-09-19T13:31:41;2.60;;;1.80;;
20609;SDS011;10463;52.378;9.688;2023-09-19T13:34:26;3.00;;;1.50;;
20609;SDS011;10463;52.378;9.688;2023-09-19T13:37:13;2.63;;;1.77;;
20609;SDS011;10463;52.378;9.688;2023-09-19T13:40:00;3.20;;;1.57;;
20609;SDS011;10463;52.378;9.688;2023-09-19T13:42:45;3.10;;;1.80;;
20609;SDS011;10463;52.378;9.688;2023-09-19T13:45:29;2.80;;;1.77;;
20609;SDS011;10463;52.378;9.688;2023-09-19T13:48:15;3.30;;;1.90;;
20609;SDS011;10463;52.378;9.688;2023-09-19T13:51:04;3.83;;;1.90;;
20609;SDS011;10463;52.378;9.688;2023-09-19T13:53:49;3.83;;;1.83;;
20609;SDS011;10463;52.378;9.688;2023-09-19T13:56:34;2.57;;;1.57;;
20609;SDS011;10463;52.378;9.688;2023-09-19T13:59:20;2.80;;;1.60;;
20609;SDS011;10463;52.378;9.688;2023-09-19T14:02:07;3.47;;;1.67;;
20609;SDS011;10463;52.378;9.688;2023-09-19T14:04:53;3.97;;;2.23;;
20609;SDS011;10463;52.378;9.688;2023-09-19T14:07:39;4.87;;;2.00;;
20609;SDS011;10463;52.378;9.688;2023-09-19T14:10:25;2.87;;;1.50;;
20609;SDS011;10463;52.378;9.688;2023-09-19T14:13:12;4.00;;;2.10;;
20609;SDS011;10463;52.378;9.688;2023-09-19T14:15:57;5.20;;;1.90;;
20609;SDS011;10463;52.378;9.688;2023-09-19T14:18:48;3.43;;;2.03;;
20609;SDS011;10463;52.378;9.688;2023-09-19T14:21:34;2.90;;;2.00;;
20609;SDS011;10463;52.378;9.688;2023-09-19T14:24:20;3.20;;;1.60;;
20609;SDS011;10463;52.378;9.688;2023-09-19T14:27:06;2.40;;;1.53;;
20609;SDS011;10463;52.378;9.688;2023-09-19T14:29:52;2.37;;;1.33;;
20609;SDS011;10463;52.378;9.688;2023-09-19T14:32:37;2.57;;;1.60;;
20609;SDS011;10463;52.378;9.688;2023-09-19T14:35:23;4.03;;;1.80;;
20609;SDS011;10463;52.378;9.688;2023-09-19T14:38:09;2.63;;;1.73;;
20609;SDS011;10463;52.378;9.688;2023-09-19T14:40:59;3.40;;;1.97;;
20609;SDS011;10463;52.378;9.688;2023-09-19T14:43:44;3.27;;;2.10;;
20609;SDS011;10463;52.378;9.688;2023-09-19T14:46:29;2.40;;;1.40;;
20609;SDS011;10463;52.378;9.688;2023-09-19T14:49:14;3.10;;;1.60;;
20609;SDS011;10463;52.378;9.688;2023-09-19T14:52:02;3.87;;;1.73;;
20609;SDS011;10463;52.378;9.688;2023-09-19T14:54:49;3.90;;;2.23;;
20609;SDS011;10463;52.378;9.688;2023-09-19T14:57:33;5.57;;;2.80;;
20609;SDS011;10463;52.378;9.688;2023-09-19T15:00:18;3.87;;;2.90;;
20609;SDS011;10463;52.378;9.688;2023-09-19T15:03:05;7.00;;;2.50;;
20609;SDS011;10463;52.378;9.688;2023-09-19T15:05:50;6.50;;;2.40;;
20609;SDS011;10463;52.378;9.688;2023-09-19T15:08:37;6.73;;;2.73;;
20609;SDS011;10463;52.378;9.688;2023-09-19T15:11:28;7.10;;;3.17;;
20609;SDS011;10463;52.378;9.688;2023-09-19T15:14:13;8.80;;;2.60;;
20609;SDS011;10463;52.378;9.688;2023-09-19T15:16:58;5.77;;;2.50;;
20609;SDS011;10463;52.378;9.688;2023-09-19T15:19:42;3.43;;;2.43;;
20609;SDS011;10463;52.378;9.688;2023-09-19T15:22:27;3.83;;;2.53;;
20609;SDS011;10463;52.378;9.688;2023-09-19T15:25:11;5.90;;;2.30;;
20609;SDS011;10463;52.378;9.688;2023-09-19T15:27:57;4.13;;;2.70;;
20609;SDS011;10463;52.378;9.688;2023-09-19T15:30:45;5.03;;;2.23;;
20609;SDS011;10463;52.378;9.688;2023-09-19T15:33:30;4.93;;;2.70;;
20609;SDS011;10463;52.378;9.688;2023-09-19T15:36:15;5.10;;;2.40;;
20609;SDS011;10463;52.378;9.688;2023-09-19T15:39:03;4.90;;;2.10;;
20609;SDS011;10463;52.378;9.688;2023-09-19T15:41:55;4.97;;;2.23;;
20609;SDS011;10463;52.378;9.688;2023-09-19T15:44:41;4.33;;;1.70;;
20609;SDS011;10463;52.378;9.688;2023-09-19T15:47:28;3.30;;;2.07;;
20609;SDS011;10463;52.378;9.688;2023-09-19T15:50:13;5.17;;;1.90;;
20609;SDS011;10463;52.378;9.688;2023-09-19T15:52:59;5.73;;;2.33;;
20609;SDS011;10463;52.378;9.688;2023-09-19T15:55:43;3.20;;;2.07;;
20609;SDS011;10463;52.378;9.688;2023-09-19T15:58:28;5.20;;;2.00;;
20609;SDS011;10463;52.378;9.688;2023-09-19T16:01:14;7.50;;;2.47;;
20609;SDS011;10463;52.378;9.688;2023-09-19T16:03:59;4.67;;;2.00;;
20609;SDS011;10463;52.378;9.688;2023-09-19T16:06:44;3.40;;;1.93;;
20609;SDS011;10463;52.378;9.688;2023-09-19T16:09:29;3.63;;;2.03;;
20609;SDS011;10463;52.378;9.688;2023-09-19T16:12:15;3.50;;;1.83;;
20609;SDS011;10463;52.378;9.688;2023-09-19T16:14:59;5.07;;;2.03;;
20609;SDS011;10463;52.378;9.688;2023-09-19T16:17:46;4.70;;;2.10;;
20609;SDS011;10463;52.378;9.688;2023-09-19T16:20:30;5.43;;;1.97;;
20609;SDS011;10463;52.378;9.688;2023-09-19T16:23:17;3.80;;;2.00;;
20609;SDS011;10463;52.378;9.688;2023-09-19T16:26:04;3.93;;;1.90;;
20609;SDS011;10463;52.378;9.688;2023-09-19T16:28:51;4.30;;;1.80;;
20609;SDS011;10463;52.378;9.688;2023-09-19T16:31:37;5.33;;;2.00;;
20609;SDS011;10463;52.378;9.688;2023-09-19T16:34:23;3.60;;;1.97;;
20609;SDS011;10463;52.378;9.688;2023-09-19T16:37:07;4.50;;;2.10;;
20609;SDS011;10463;52.378;9.688;2023-09-19T16:39:52;4.27;;;2.00;;
20609;SDS011;10463;52.378;9.688;2023-09-19T16:42:36;4.67;;;2.93;;
20609;SDS011;10463;52.378;9.688;2023-09-19T16:45:22;2.63;;;1.63;;
20609;SDS011;10463;52.378;9.688;2023-09-19T16:48:08;2.97;;;1.83;;
20609;SDS011;10463;52.378;9.688;2023-09-19T16:50:53;3.80;;;2.17;;